createdAt,value
2023-04-02T00:02:25.932Z,61.33
2023-04-02T00:05:08.604Z,78.28
2023-04-02T00:07:38.259Z,67.20
2023-04-02T00:10:06.783Z,75.50
2023-04-02T00:12:34.442Z,70.65
2023-04-02T00:15:02.319Z,68.07
2023-04-02T00:17:30.070Z,64.43
2023-04-02T00:19:59.284Z,71.65
2023-04-02T00:22:29.189Z,84.38
2023-04-02T00:25:01.251Z,82.07
2023-04-02T00:27:28.891Z,74.75
2023-04-02T00:29:57.438Z,70.40
2023-04-02T00:32:27.029Z,86.38
2023-04-02T00:34:55.175Z,78.47
2023-04-02T00:37:25.228Z,91.88
2023-04-02T00:39:54.384Z,89.63
2023-04-02T00:42:25.307Z,95.68
2023-04-02T00:44:56.026Z,86.82
2023-04-02T00:47:26.526Z,93.57
2023-04-02T00:49:58.236Z,101.60
2023-04-02T00:52:27.433Z,91.53
2023-04-02T00:55:00.073Z,90.45
2023-04-02T00:57:29.154Z,72.85
2023-04-02T00:59:58.563Z,92.65
2023-04-02T01:02:28.478Z,77.10
2023-04-02T01:04:57.489Z,95.70
2023-04-02T01:07:30.698Z,89.63
2023-04-02T01:10:06.369Z,65.68
2023-04-02T01:12:46.004Z,70.35
2023-04-02T01:15:16.945Z,42.92
2023-04-02T01:17:48.949Z,55.63
2023-04-02T01:20:34.371Z,72.82
2023-04-02T01:23:05.882Z,74.35
2023-04-02T01:25:42.482Z,64.03
2023-04-02T01:28:19.719Z,68.72
2023-04-02T01:30:52.039Z,59.65
2023-04-02T01:33:19.966Z,55.45
2023-04-02T01:35:51.479Z,42.22
2023-04-02T01:38:22.666Z,28.67
2023-04-02T01:40:53.651Z,43.83
2023-04-02T01:43:25.165Z,51.78
2023-04-02T01:45:54.200Z,45.60
2023-04-02T01:48:24.726Z,45.60
2023-04-02T01:50:54.914Z,46.08
2023-04-02T01:53:23.082Z,31.95
2023-04-02T01:55:52.565Z,26.30
2023-04-02T01:58:20.941Z,33.85
2023-04-02T02:00:51.002Z,22.38
2023-04-02T02:03:25.753Z,40.72
2023-04-02T02:05:53.573Z,34.28
2023-04-02T02:08:30.102Z,30.75
2023-04-02T02:10:58.144Z,35.70
2023-04-02T02:13:25.877Z,15.48
2023-04-02T02:15:53.599Z,21.38
2023-04-02T02:18:24.256Z,24.13
2023-04-02T02:20:52.182Z,24.67
2023-04-02T02:23:20.076Z,20.95
2023-04-02T02:25:48.050Z,23.73
2023-04-02T02:28:17.091Z,17.70
2023-04-02T02:30:45.989Z,25.45
2023-04-02T02:33:17.521Z,29.13
2023-04-02T02:35:50.093Z,22.30
2023-04-02T02:38:27.127Z,21.45
2023-04-02T02:40:57.649Z,28.35
2023-04-02T02:43:26.021Z,24.90
2023-04-02T02:45:54.943Z,20.42
2023-04-02T02:48:24.884Z,18.52
2023-04-02T02:50:54.592Z,30.05
2023-04-02T02:53:22.925Z,19.15
2023-04-02T02:55:52.334Z,32.63
2023-04-02T02:58:23.503Z,17.27
2023-04-02T03:00:51.370Z,25.10
2023-04-02T03:03:21.953Z,19.13
2023-04-02T03:05:51.608Z,21.75
2023-04-02T03:08:22.739Z,26.65
2023-04-02T03:10:53.551Z,21.23
2023-04-02T03:13:23.126Z,21.83
2023-04-02T03:15:55.744Z,18.38
2023-04-02T03:18:28.684Z,27.23
2023-04-02T03:20:58.366Z,27.92
2023-04-02T03:23:30.111Z,23.98
2023-04-02T03:26:00.745Z,24.50
2023-04-02T03:28:30.044Z,24.77
2023-04-02T03:31:00.922Z,25.05
2023-04-02T03:33:29.273Z,29.95
2023-04-02T03:35:59.812Z,34.08
2023-04-02T03:38:31.376Z,32.85
2023-04-02T03:41:04.933Z,43.33
2023-04-02T03:43:34.316Z,42.05
2023-04-02T03:46:06.767Z,24.25
2023-04-02T03:48:38.018Z,26.08
2023-04-02T03:51:08.090Z,35.60
2023-04-02T03:53:37.095Z,35.20
2023-04-02T03:56:05.923Z,41.78
2023-04-02T03:58:38.469Z,29.60
2023-04-02T04:01:09.855Z,45.53
2023-04-02T04:03:41.044Z,36.17
2023-04-02T04:06:11.258Z,38.03
2023-04-02T04:08:44.820Z,31.40
2023-04-02T04:11:15.494Z,22.80
2023-04-02T04:13:46.748Z,45.10
2023-04-02T04:16:17.755Z,36.70
2023-04-02T04:18:49.106Z,27.80
2023-04-02T04:21:30.934Z,23.05
2023-04-02T04:24:04.351Z,26.52
2023-04-02T04:26:36.683Z,18.45
2023-04-02T04:29:12.534Z,20.05
2023-04-02T04:31:47.256Z,21.30
2023-04-02T04:34:17.365Z,25.15
2023-04-02T04:36:48.158Z,18.70
2023-04-02T04:39:21.507Z,25.92
2023-04-02T04:41:49.817Z,28.60
2023-04-02T04:44:20.568Z,34.90
2023-04-02T04:46:50.525Z,33.40
2023-04-02T04:49:19.905Z,31.45
2023-04-02T04:51:49.155Z,28.20
2023-04-02T04:54:18.654Z,26.13
2023-04-02T04:56:47.458Z,23.92
2023-04-02T04:59:17.934Z,25.65
2023-04-02T05:01:47.908Z,27.30
2023-04-02T05:04:17.517Z,27.02
2023-04-02T05:06:51.097Z,25.73
2023-04-02T05:09:22.570Z,26.00
2023-04-02T05:11:53.099Z,31.00
2023-04-02T05:14:24.546Z,29.73
2023-04-02T05:16:54.273Z,20.65
2023-04-02T05:19:23.809Z,20.00
2023-04-02T05:21:54.885Z,21.52
2023-04-02T05:24:43.685Z,22.83
2023-04-02T05:27:19.903Z,20.67
2023-04-02T05:29:50.897Z,20.80
2023-04-02T05:32:21.051Z,20.17
2023-04-02T05:34:51.621Z,27.92
2023-04-02T05:37:21.247Z,19.75
2023-04-02T05:39:51.105Z,20.35
2023-04-02T05:42:23.630Z,14.05
2023-04-02T05:44:57.380Z,20.52
2023-04-02T05:50:44.609Z,17.10
2023-04-02T05:53:16.089Z,15.68
2023-04-02T05:55:46.262Z,16.65
2023-04-02T05:58:34.722Z,24.08
2023-04-02T06:01:21.109Z,23.67
2023-04-02T06:03:54.798Z,29.00
2023-04-02T06:06:26.750Z,16.90
2023-04-02T06:08:57.787Z,25.23
2023-04-02T06:11:28.220Z,22.92
2023-04-02T06:13:57.253Z,21.92
2023-04-02T06:16:30.938Z,18.70
2023-04-02T06:18:59.108Z,21.73
2023-04-02T06:21:26.937Z,24.08
2023-04-02T06:23:56.326Z,16.35
2023-04-02T06:26:27.726Z,17.10
2023-04-02T06:29:01.689Z,25.50
2023-04-02T06:31:31.558Z,21.13
2023-04-02T06:33:59.263Z,21.75
2023-04-02T06:36:28.283Z,16.85
2023-04-02T06:38:57.030Z,22.38
2023-04-02T06:41:25.347Z,21.15
2023-04-02T06:43:55.790Z,20.00
2023-04-02T06:46:28.784Z,22.38
2023-04-02T06:48:59.258Z,20.25
2023-04-02T06:51:28.452Z,20.75
2023-04-02T06:53:56.315Z,25.33
2023-04-02T06:56:28.356Z,19.50
2023-04-02T06:58:56.172Z,12.30
2023-04-02T07:01:27.835Z,20.42
2023-04-02T07:03:56.139Z,20.58
2023-04-02T07:06:24.183Z,13.93
2023-04-02T07:08:52.005Z,22.50
2023-04-02T07:11:21.331Z,22.13
2023-04-02T07:13:49.596Z,22.05
2023-04-02T07:16:18.455Z,25.33
2023-04-02T07:18:47.964Z,18.42
2023-04-02T07:21:15.657Z,19.77
2023-04-02T07:23:46.500Z,24.75
2023-04-02T07:26:15.102Z,16.42
2023-04-02T07:28:43.126Z,18.02
2023-04-02T07:31:16.730Z,24.52
2023-04-02T07:33:44.770Z,17.63
2023-04-02T07:36:15.880Z,19.15
2023-04-02T07:38:43.619Z,19.80
2023-04-02T07:41:11.699Z,18.45
2023-04-02T07:43:39.681Z,19.70
2023-04-02T07:46:07.825Z,21.05
2023-04-02T07:48:35.824Z,15.95
2023-04-02T07:51:04.113Z,21.50
2023-04-02T07:53:34.363Z,20.00
2023-04-02T07:56:02.938Z,12.55
2023-04-02T07:58:30.983Z,19.30
2023-04-02T08:00:58.847Z,22.27
2023-04-02T08:03:27.072Z,19.30
2023-04-02T08:05:55.581Z,18.45
2023-04-02T08:08:23.830Z,18.42
2023-04-02T08:10:53.045Z,20.25
2023-04-02T08:13:21.393Z,15.85
2023-04-02T08:15:49.298Z,17.60
2023-04-02T08:18:17.044Z,15.10
2023-04-02T08:20:44.727Z,19.73
2023-04-02T08:23:18.250Z,17.48
2023-04-02T08:25:46.178Z,16.05
2023-04-02T08:28:15.504Z,18.00
2023-04-02T08:30:43.455Z,20.45
2023-04-02T08:33:11.518Z,26.98
2023-04-02T08:35:39.783Z,16.50
2023-04-02T08:38:07.806Z,23.52
2023-04-02T08:40:36.684Z,25.65
2023-04-02T08:43:09.911Z,35.17
2023-04-02T08:45:43.949Z,17.33
2023-04-02T08:48:12.891Z,25.48
2023-04-02T08:50:43.131Z,22.33
2023-04-02T08:53:14.886Z,17.77
2023-04-02T08:55:43.862Z,28.67
2023-04-02T08:58:27.072Z,20.70
2023-04-02T09:00:56.656Z,25.20
2023-04-02T09:03:29.230Z,20.15
2023-04-02T09:05:58.538Z,23.98
2023-04-02T09:08:27.440Z,26.10
2023-04-02T09:10:59.820Z,21.00
2023-04-02T09:13:29.299Z,20.67
2023-04-02T09:16:02.321Z,21.08
2023-04-02T09:18:38.354Z,18.88
2023-04-02T09:21:19.213Z,20.42
2023-04-02T09:23:47.323Z,18.60
2023-04-02T09:26:22.016Z,19.45
2023-04-02T09:28:50.166Z,18.30
2023-04-02T09:31:21.196Z,17.17
2023-04-02T09:33:50.910Z,11.60
2023-04-02T09:36:21.945Z,20.80
2023-04-02T09:38:59.085Z,20.02
2023-04-02T09:41:28.268Z,13.93
2023-04-02T09:44:11.027Z,18.20
2023-04-02T09:46:47.915Z,12.73
2023-04-02T09:49:17.991Z,17.10
2023-04-02T09:51:45.744Z,26.17
2023-04-02T09:54:17.383Z,13.55
2023-04-02T09:57:01.817Z,15.18
2023-04-02T09:59:29.554Z,17.73
2023-04-02T10:02:03.674Z,15.77
2023-04-02T10:04:35.383Z,14.07
2023-04-02T10:07:03.709Z,11.80
2023-04-02T10:09:32.468Z,15.05
2023-04-02T10:12:01.274Z,13.98
2023-04-02T10:14:29.950Z,19.50
2023-04-02T10:16:59.107Z,19.23
2023-04-02T10:19:30.797Z,14.50
2023-04-02T10:21:59.306Z,19.63
2023-04-02T10:24:28.796Z,16.35
2023-04-02T10:26:59.665Z,12.73
2023-04-02T10:29:32.656Z,13.93
2023-04-02T10:32:02.429Z,17.08
2023-04-02T10:34:41.702Z,15.88
2023-04-02T10:37:18.411Z,15.35
2023-04-02T10:39:48.632Z,17.52
2023-04-02T10:42:18.688Z,16.98
2023-04-02T10:44:51.444Z,21.17
2023-04-02T10:47:31.346Z,20.83
2023-04-02T10:50:07.998Z,20.52
2023-04-02T10:52:38.403Z,23.42
2023-04-02T10:55:08.726Z,23.70
2023-04-02T10:57:38.591Z,21.35
2023-04-02T11:00:10.358Z,19.80
2023-04-02T11:02:43.124Z,18.33
2023-04-02T11:05:29.186Z,20.30
2023-04-02T11:07:59.217Z,16.90
2023-04-02T11:10:27.617Z,19.15
2023-04-02T11:12:57.431Z,21.25
2023-04-02T11:15:25.184Z,13.95
2023-04-02T11:17:52.946Z,18.02
2023-04-02T11:20:44.837Z,14.13
2023-04-02T11:23:14.710Z,17.80
2023-04-02T11:25:43.016Z,14.13
2023-04-02T11:28:15.158Z,11.15
2023-04-02T11:30:43.147Z,12.30
2023-04-02T11:33:37.688Z,14.57
2023-04-02T11:36:22.488Z,15.43
2023-04-02T11:38:52.918Z,15.07
2023-04-02T11:41:39.270Z,13.40
2023-04-02T11:44:22.615Z,12.38
2023-04-02T11:46:51.538Z,9.68
2023-04-02T11:49:40.169Z,16.27
2023-04-02T11:52:21.859Z,11.38
2023-04-02T11:54:57.934Z,17.98
2023-04-02T11:57:41.018Z,17.65
2023-04-02T12:00:18.653Z,11.27
2023-04-02T12:02:54.646Z,15.73
2023-04-02T12:05:27.140Z,14.57
2023-04-02T12:08:07.532Z,16.33
2023-04-02T12:10:50.828Z,14.57
2023-04-02T12:13:19.461Z,17.38
2023-04-02T12:15:47.796Z,16.15
2023-04-02T12:18:16.863Z,17.75
2023-04-02T12:20:48.260Z,17.85
2023-04-02T12:23:21.368Z,16.65
2023-04-02T12:25:56.456Z,18.45
2023-04-02T12:28:24.392Z,18.52
2023-04-02T12:31:03.569Z,17.50
2023-04-02T12:33:33.797Z,16.30
2023-04-02T12:36:02.573Z,16.23
2023-04-02T12:38:31.052Z,18.42
2023-04-02T12:41:01.297Z,21.27
2023-04-02T12:43:29.547Z,18.45
2023-04-02T12:45:58.968Z,22.48
2023-04-02T12:48:27.229Z,21.95
2023-04-02T12:50:57.504Z,23.50
2023-04-02T12:53:27.269Z,17.60
2023-04-02T12:55:55.486Z,16.25
2023-04-02T12:58:27.132Z,14.07
2023-04-02T13:01:09.708Z,15.32
2023-04-02T13:03:37.423Z,13.85
2023-04-02T13:06:05.363Z,12.52
2023-04-02T13:08:38.326Z,12.73
2023-04-02T13:11:06.549Z,18.38
2023-04-02T13:13:36.607Z,18.05
2023-04-02T13:16:09.798Z,28.92
2023-04-02T13:18:38.353Z,14.35
2023-04-02T13:21:06.824Z,13.82
2023-04-02T13:23:36.312Z,16.55
2023-04-02T13:26:11.115Z,13.25
2023-04-02T13:28:40.130Z,16.92
2023-04-02T13:31:07.799Z,11.85
2023-04-02T13:33:35.510Z,11.02
2023-04-02T13:36:04.160Z,10.88
2023-04-02T13:38:32.010Z,11.05
2023-04-02T13:40:59.789Z,12.65
2023-04-02T13:43:27.493Z,12.45
2023-04-02T13:45:59.281Z,11.27
2023-04-02T13:48:28.804Z,18.80
2023-04-02T13:50:56.640Z,16.73
2023-04-02T13:53:26.235Z,14.82
2023-04-02T13:55:53.904Z,14.48
2023-04-02T13:58:21.559Z,16.95
2023-04-02T14:00:49.728Z,18.10
2023-04-02T14:03:21.872Z,13.90
2023-04-02T14:05:54.657Z,16.85
2023-04-02T14:08:24.757Z,14.30
2023-04-02T14:11:00.847Z,12.10
2023-04-02T14:13:42.640Z,13.75
2023-04-02T14:16:19.381Z,13.70
2023-04-02T14:18:55.553Z,13.27
2023-04-02T14:21:27.731Z,13.02
2023-04-02T14:24:00.820Z,15.80
2023-04-02T14:26:33.091Z,13.20
2023-04-02T14:29:05.335Z,12.52
2023-04-02T14:31:37.378Z,15.23
2023-04-02T14:34:09.551Z,17.73
2023-04-02T14:36:42.121Z,14.38
2023-04-02T14:39:13.154Z,12.65
2023-04-02T14:41:44.118Z,14.15
2023-04-02T14:44:12.866Z,11.30
2023-04-02T14:46:41.759Z,12.30
2023-04-02T14:49:18.281Z,15.23
2023-04-02T14:51:48.177Z,15.27
2023-04-02T14:54:19.082Z,16.45
2023-04-02T14:56:48.690Z,12.65
2023-04-02T14:59:28.641Z,13.15
2023-04-02T15:01:57.785Z,14.50
2023-04-02T15:04:30.311Z,13.40
2023-04-02T15:07:00.532Z,15.35
2023-04-02T15:09:30.040Z,12.50
2023-04-02T15:11:59.965Z,13.55
2023-04-02T15:14:30.205Z,14.57
2023-04-02T15:17:10.150Z,18.08
2023-04-02T15:19:39.288Z,16.08
2023-04-02T15:22:12.889Z,14.90
2023-04-02T15:24:45.250Z,15.68
2023-04-02T15:27:25.216Z,22.42
2023-04-02T15:29:56.606Z,18.38
2023-04-02T15:32:29.594Z,20.42
2023-04-02T15:35:00.711Z,16.20
2023-04-02T15:37:30.914Z,17.88
2023-04-02T15:40:06.260Z,15.38
2023-04-02T15:45:23.328Z,18.35
2023-04-02T15:47:58.668Z,18.00
2023-04-02T15:52:58.544Z,11.80
2023-04-02T15:55:27.991Z,16.27
2023-04-02T15:58:06.573Z,14.98
2023-04-02T16:00:37.907Z,15.98
2023-04-02T16:03:23.863Z,16.00
2023-04-02T16:08:37.270Z,16.05
2023-04-02T16:13:36.988Z,12.98
2023-04-02T16:16:06.494Z,16.17
2023-04-02T16:18:48.501Z,22.05
2023-04-02T16:21:18.939Z,15.20
2023-04-02T16:23:46.728Z,14.60
2023-04-02T16:26:29.451Z,12.85
2023-04-02T16:29:03.324Z,13.07
2023-04-02T16:31:34.256Z,10.05
2023-04-02T16:34:07.837Z,12.65
2023-04-02T16:36:44.323Z,10.98
2023-04-02T16:39:19.151Z,8.75
2023-04-02T16:41:51.875Z,12.80
2023-04-02T16:47:30.662Z,8.80
2023-04-02T16:50:02.140Z,9.90
2023-04-02T16:52:41.896Z,9.00
2023-04-02T16:55:19.728Z,7.90
2023-04-02T16:57:51.249Z,5.53
2023-04-02T17:00:24.789Z,7.05
2023-04-02T17:03:02.157Z,8.15
2023-04-02T17:05:33.933Z,5.32
2023-04-02T17:08:09.661Z,8.40
2023-04-02T17:10:41.683Z,7.20
2023-04-02T17:13:18.999Z,5.82
2023-04-02T17:15:49.452Z,6.70
2023-04-02T17:18:18.399Z,4.13
2023-04-02T17:20:46.820Z,8.35
2023-04-02T17:23:15.383Z,8.40
2023-04-02T17:25:46.300Z,4.78
2023-04-02T17:28:16.264Z,5.45
2023-04-02T17:30:46.063Z,8.57
2023-04-02T17:33:15.913Z,5.63
2023-04-02T17:35:49.568Z,7.38
2023-04-02T17:38:21.296Z,4.90
2023-04-02T17:40:51.328Z,7.03
2023-04-02T17:43:26.378Z,5.35
2023-04-02T17:45:56.371Z,4.25
2023-04-02T17:48:27.953Z,4.38
2023-04-02T17:51:00.133Z,5.07
2023-04-02T17:53:32.748Z,6.72
2023-04-02T17:56:04.841Z,6.18
2023-04-02T17:58:47.320Z,6.20
2023-04-02T18:01:17.579Z,6.05
2023-04-02T18:03:52.122Z,5.28
2023-04-02T18:06:21.726Z,6.77
2023-04-02T18:09:05.361Z,7.68
2023-04-02T18:11:38.235Z,5.85
2023-04-02T18:14:12.189Z,5.47
2023-04-02T18:16:45.061Z,6.53
2023-04-02T18:19:19.154Z,5.65
2023-04-02T18:22:01.106Z,8.50
2023-04-02T18:24:39.032Z,6.55
2023-04-02T18:27:16.663Z,6.63
2023-04-02T18:29:49.708Z,8.55
2023-04-02T18:32:29.780Z,7.95
2023-04-02T18:35:03.805Z,8.60
2023-04-02T18:37:38.303Z,9.90
2023-04-02T18:40:22.153Z,10.43
2023-04-02T18:42:52.625Z,8.30
2023-04-02T18:45:23.181Z,17.63
2023-04-02T18:47:59.529Z,24.23
2023-04-02T18:50:33.233Z,20.73
2023-04-02T18:53:02.137Z,18.35
2023-04-02T18:55:31.538Z,25.35
2023-04-02T18:58:02.249Z,19.65
2023-04-02T19:00:31.821Z,17.35
2023-04-02T19:03:02.971Z,11.15
2023-04-02T19:05:39.078Z,14.82
2023-04-02T19:08:14.211Z,8.68
2023-04-02T19:10:44.575Z,10.85
2023-04-02T19:13:15.601Z,11.32
2023-04-02T19:15:49.481Z,12.60
2023-04-02T19:18:20.096Z,9.70
2023-04-02T19:20:52.392Z,9.45
2023-04-02T19:23:33.771Z,10.30
2023-04-02T19:26:02.758Z,18.42
2023-04-02T19:28:32.718Z,12.15
2023-04-02T19:31:09.345Z,6.20
2023-04-02T19:33:46.597Z,11.27
2023-04-02T19:36:23.315Z,15.27
2023-04-02T19:38:59.497Z,11.57
2023-04-02T19:41:30.940Z,7.40
2023-04-02T19:43:58.867Z,8.85
2023-04-02T19:46:27.786Z,11.45
2023-04-02T19:48:59.909Z,12.52
2023-04-02T19:51:29.689Z,11.10
2023-04-02T19:53:57.512Z,9.98
2023-04-02T19:56:25.903Z,12.88
2023-04-02T19:58:53.587Z,11.95
2023-04-02T20:01:21.460Z,13.63
2023-04-02T20:03:49.498Z,10.65
2023-04-02T20:06:17.249Z,12.07
2023-04-02T20:08:46.322Z,11.10
2023-04-02T20:11:14.720Z,9.57
2023-04-02T20:13:42.455Z,11.40
2023-04-02T20:16:10.186Z,10.43
2023-04-02T20:18:38.015Z,11.50
2023-04-02T20:21:06.385Z,10.25
2023-04-02T20:23:34.574Z,10.35
2023-04-02T20:26:04.131Z,11.82
2023-04-02T20:28:32.314Z,16.08
2023-04-02T20:31:06.825Z,14.48
2023-04-02T20:33:37.874Z,16.07
2023-04-02T20:36:06.823Z,18.70
2023-04-02T20:38:42.471Z,18.80
2023-04-02T20:41:16.084Z,17.88
2023-04-02T20:43:43.895Z,18.45
2023-04-02T20:46:12.730Z,16.92
2023-04-02T20:48:40.712Z,17.60
2023-04-02T20:51:09.418Z,17.00
2023-04-02T20:53:40.911Z,19.35
2023-04-02T20:56:10.164Z,15.68
2023-04-02T20:58:40.369Z,17.05
2023-04-02T21:01:09.046Z,15.60
2023-04-02T21:03:36.772Z,13.48
2023-04-02T21:06:04.743Z,12.50
2023-04-02T21:08:32.449Z,14.45
2023-04-02T21:11:03.816Z,17.05
2023-04-02T21:13:31.755Z,13.13
2023-04-02T21:16:00.980Z,13.90
2023-04-02T21:18:28.683Z,14.63
2023-04-02T21:21:00.668Z,14.48
2023-04-02T21:23:28.323Z,16.17
2023-04-02T21:25:57.488Z,12.02
2023-04-02T21:28:25.431Z,13.20
2023-04-02T21:30:53.250Z,11.48
2023-04-02T21:33:22.826Z,11.18
2023-04-02T21:35:50.653Z,16.10
2023-04-02T21:38:27.263Z,13.07
2023-04-02T21:40:55.354Z,14.23
2023-04-02T21:43:29.489Z,11.63
2023-04-02T21:45:59.392Z,12.98
2023-04-02T21:48:28.499Z,12.15
2023-04-02T21:51:05.321Z,13.40
2023-04-02T21:53:33.960Z,19.35
2023-04-02T21:56:02.850Z,11.60
2023-04-02T21:58:30.566Z,10.02
2023-04-02T22:00:59.023Z,13.55
2023-04-02T22:03:31.588Z,12.80
2023-04-02T22:06:03.961Z,11.55
2023-04-02T22:08:31.857Z,16.90
2023-04-02T22:11:04.939Z,15.50
2023-04-02T22:13:32.647Z,18.85
2023-04-02T22:16:01.240Z,13.60
2023-04-02T22:18:30.310Z,20.88
2023-04-02T22:20:58.434Z,14.85
2023-04-02T22:23:26.627Z,13.02
2023-04-02T22:25:54.300Z,15.65
2023-04-02T22:28:22.357Z,15.45
2023-04-02T22:30:52.288Z,13.50
2023-04-02T22:33:20.287Z,14.40
2023-04-02T22:35:52.527Z,16.67
2023-04-02T22:38:20.434Z,16.65
2023-04-02T22:40:48.095Z,17.92
2023-04-02T22:43:18.346Z,14.63
2023-04-02T22:45:48.171Z,11.00
2023-04-02T22:48:16.630Z,14.50
2023-04-02T22:50:44.294Z,14.68
2023-04-02T22:53:15.280Z,18.20
2023-04-02T22:55:42.981Z,15.35
2023-04-02T22:58:10.931Z,15.82
2023-04-02T23:00:39.342Z,15.70
2023-04-02T23:03:07.327Z,11.80
2023-04-02T23:05:35.071Z,21.60
2023-04-02T23:08:02.776Z,14.75
2023-04-02T23:10:31.860Z,15.55
2023-04-02T23:12:59.504Z,23.38
2023-04-02T23:15:27.160Z,15.18
2023-04-02T23:17:54.858Z,18.58
2023-04-02T23:20:27.430Z,15.27
2023-04-02T23:22:55.098Z,17.35
2023-04-02T23:25:22.763Z,16.70
2023-04-02T23:27:51.765Z,17.58
2023-04-02T23:30:19.526Z,19.98
2023-04-02T23:32:47.320Z,19.17
2023-04-02T23:35:15.930Z,21.92
2023-04-02T23:37:43.632Z,22.17
2023-04-02T23:40:11.671Z,17.50
2023-04-02T23:42:40.049Z,22.90
2023-04-02T23:45:09.895Z,21.13
2023-04-02T23:47:37.583Z,26.45
2023-04-02T23:50:05.790Z,18.27
2023-04-02T23:52:33.482Z,21.88
2023-04-02T23:55:01.396Z,22.27
2023-04-02T23:57:29.141Z,24.25
2023-04-02T23:59:58.500Z,23.15
